Sainte-Henedine, Canada
Current Conditions -  °F | °C
As of 8:29 PM on Tuesday 25 Nov 2014 (Local Time) from CYQB Reporting Station
Broken Clouds Broken Clouds  
Wind Chill: 29°   Ceiling: 6300
Heat Index: 39°   Visibility: 15mi
Dew Point: 30°   Wind: 22mph
Humidity: 70%   Direction: 230°SW
Pressure: 29.84"   Gusts: 33mph
Location:  46.57°N, 70.98°W
Report Text: CYQB 260129Z 23019G29KT 15SM FEW032 BKN063 BKN090 04/M01 A2984 RMK SC1SC4AC1 SLP107
Loading
Personal Weather Stations






























Interactive Weather Map New forecast layout! Learn more

10-Day Weather Forecast

Advertisements
Track Severe Weather on mobile